Paganella, Italy
Alba: 7:14 AM UTC1
Tramonto: 5:45 PM UTC1
 Lat: 46.13N, Lon: 11.02E
ICAO Used: LIVP
Condizioni Meteo Attuali Aggiornate: 19.02.2019 alle 12:55 UTC
Quasi Sereno
Quasi Sereno
Sereno
Quasi Sereno
Temp: 1°C
Umidita': 40%
Direz/Vel. Vento: NNW 7 / KT raffiche
Pressione: 1019 hPa
Punto di rugiada: -11°C
Temperatura percepita: 1°C
Visibilitą: >10 KM (ottima)
Temperatura percepita in
presenza di vento (Wind Chill)
:
-3°C
T. max (ultime 24 ore): 1°C
T. min (ultime 24 ore): -1°C


METAR ORIGINALE
LIVP 191255Z 34007KT CAVOK 01/M11 Q1019 RMK SKC MON LIB VAL NIL VIS MIN 9999



[ Indietro ]


Elaborazione dati by Datameteo.com - Lrc srl Copyright ©, All rights reserved.